sensor_id;sensor_type;location;lat;lon;timestamp;temperature;humidity
24410;DHT22;12543;53.364;-1.504;2022-11-20T00:01:19;7.40;99.90
24410;DHT22;12543;53.364;-1.504;2022-11-20T00:03:46;7.40;99.90
24410;DHT22;12543;53.364;-1.504;2022-11-20T00:06:16;7.40;99.90
24410;DHT22;12543;53.364;-1.504;2022-11-20T00:08:44;7.40;99.90
24410;DHT22;12543;53.364;-1.504;2022-11-20T00:11:14;7.40;99.90
24410;DHT22;12543;53.364;-1.504;2022-11-20T00:13:46;7.40;99.90
24410;DHT22;12543;53.364;-1.504;2022-11-20T00:16:17;7.40;99.90
24410;DHT22;12543;53.364;-1.504;2022-11-20T00:18:44;7.40;99.90
24410;DHT22;12543;53.364;-1.504;2022-11-20T00:21:15;7.40;99.90
24410;DHT22;12543;53.364;-1.504;2022-11-20T00:23:42;7.40;99.90
24410;DHT22;12543;53.364;-1.504;2022-11-20T00:26:12;7.40;99.90
24410;DHT22;12543;53.364;-1.504;2022-11-20T00:28:40;7.30;99.90
24410;DHT22;12543;53.364;-1.504;2022-11-20T00:31:12;7.40;99.90
24410;DHT22;12543;53.364;-1.504;2022-11-20T00:33:41;7.30;99.90
24410;DHT22;12543;53.364;-1.504;2022-11-20T00:36:14;7.30;99.90
24410;DHT22;12543;53.364;-1.504;2022-11-20T00:38:42;7.40;99.90
24410;DHT22;12543;53.364;-1.504;2022-11-20T00:41:12;7.40;99.90
24410;DHT22;12543;53.364;-1.504;2022-11-20T00:43:41;7.40;99.90
24410;DHT22;12543;53.364;-1.504;2022-11-20T00:46:19;7.40;99.90
24410;DHT22;12543;53.364;-1.504;2022-11-20T00:48:47;7.40;99.90
24410;DHT22;12543;53.364;-1.504;2022-11-20T00:51:16;7.40;99.90
24410;DHT22;12543;53.364;-1.504;2022-11-20T00:53:44;7.40;99.90
24410;DHT22;12543;53.364;-1.504;2022-11-20T00:56:13;7.40;99.90
24410;DHT22;12543;53.364;-1.504;2022-11-20T00:58:42;7.40;99.90
24410;DHT22;12543;53.364;-1.504;2022-11-20T01:01:12;7.40;99.90
24410;DHT22;12543;53.364;-1.504;2022-11-20T01:03:44;7.40;99.90
24410;DHT22;12543;53.364;-1.504;2022-11-20T01:06:13;7.40;99.90
24410;DHT22;12543;53.364;-1.504;2022-11-20T01:08:41;7.40;99.90
24410;DHT22;12543;53.364;-1.504;2022-11-20T01:11:15;7.50;99.90
24410;DHT22;12543;53.364;-1.504;2022-11-20T01:13:43;7.50;99.90
24410;DHT22;12543;53.364;-1.504;2022-11-20T01:16:16;7.50;99.90
24410;DHT22;12543;53.364;-1.504;2022-11-20T01:18:46;7.50;99.90
24410;DHT22;12543;53.364;-1.504;2022-11-20T01:21:17;7.50;99.90
24410;DHT22;12543;53.364;-1.504;2022-11-20T01:23:45;7.50;99.90
24410;DHT22;12543;53.364;-1.504;2022-11-20T01:26:15;7.50;99.90
24410;DHT22;12543;53.364;-1.504;2022-11-20T01:28:43;7.50;99.90
24410;DHT22;12543;53.364;-1.504;2022-11-20T01:31:34;7.50;99.90
24410;DHT22;12543;53.364;-1.504;2022-11-20T01:34:07;7.50;99.90
24410;DHT22;12543;53.364;-1.504;2022-11-20T01:36:36;7.50;99.90
24410;DHT22;12543;53.364;-1.504;2022-11-20T01:39:07;7.50;99.90
24410;DHT22;12543;53.364;-1.504;2022-11-20T01:41:36;7.50;99.90
24410;DHT22;12543;53.364;-1.504;2022-11-20T01:44:45;7.50;99.90
24410;DHT22;12543;53.364;-1.504;2022-11-20T01:47:12;7.50;99.90
24410;DHT22;12543;53.364;-1.504;2022-11-20T01:49:48;7.50;99.90
24410;DHT22;12543;53.364;-1.504;2022-11-20T01:52:47;7.50;99.90
24410;DHT22;12543;53.364;-1.504;2022-11-20T01:55:19;7.50;99.90
24410;DHT22;12543;53.364;-1.504;2022-11-20T01:57:48;7.50;99.90
24410;DHT22;12543;53.364;-1.504;2022-11-20T02:00:18;7.40;99.90
24410;DHT22;12543;53.364;-1.504;2022-11-20T02:02:54;7.40;99.90
24410;DHT22;12543;53.364;-1.504;2022-11-20T02:05:31;7.40;99.90
24410;DHT22;12543;53.364;-1.504;2022-11-20T02:08:00;7.30;99.90
24410;DHT22;12543;53.364;-1.504;2022-11-20T02:10:28;7.30;99.90
24410;DHT22;12543;53.364;-1.504;2022-11-20T02:12:56;7.30;99.90
24410;DHT22;12543;53.364;-1.504;2022-11-20T02:15:42;7.30;99.90
24410;DHT22;12543;53.364;-1.504;2022-11-20T02:18:11;7.30;99.90
24410;DHT22;12543;53.364;-1.504;2022-11-20T02:20:40;7.30;99.90
24410;DHT22;12543;53.364;-1.504;2022-11-20T02:23:11;7.30;99.90
24410;DHT22;12543;53.364;-1.504;2022-11-20T02:25:40;7.20;99.90
24410;DHT22;12543;53.364;-1.504;2022-11-20T02:28:08;7.20;99.90
24410;DHT22;12543;53.364;-1.504;2022-11-20T02:30:35;7.20;99.90
24410;DHT22;12543;53.364;-1.504;2022-11-20T02:33:02;7.20;99.90
24410;DHT22;12543;53.364;-1.504;2022-11-20T02:38:01;7.20;99.90
24410;DHT22;12543;53.364;-1.504;2022-11-20T02:40:29;7.20;99.90
24410;DHT22;12543;53.364;-1.504;2022-11-20T02:42:56;7.20;99.90
24410;DHT22;12543;53.364;-1.504;2022-11-20T02:45:24;7.20;99.90
24410;DHT22;12543;53.364;-1.504;2022-11-20T02:47:51;7.20;99.90
24410;DHT22;12543;53.364;-1.504;2022-11-20T02:50:19;7.20;99.90
24410;DHT22;12543;53.364;-1.504;2022-11-20T02:52:46;7.20;99.90
24410;DHT22;12543;53.364;-1.504;2022-11-20T02:55:13;7.20;99.90
24410;DHT22;12543;53.364;-1.504;2022-11-20T02:57:40;7.20;99.90
24410;DHT22;12543;53.364;-1.504;2022-11-20T03:00:07;7.20;99.90
24410;DHT22;12543;53.364;-1.504;2022-11-20T03:02:35;7.20;99.90
24410;DHT22;12543;53.364;-1.504;2022-11-20T03:05:02;7.20;99.90
24410;DHT22;12543;53.364;-1.504;2022-11-20T03:07:29;7.20;99.90
24410;DHT22;12543;53.364;-1.504;2022-11-20T03:09:56;7.20;99.90
24410;DHT22;12543;53.364;-1.504;2022-11-20T03:12:23;7.20;99.90
24410;DHT22;12543;53.364;-1.504;2022-11-20T03:14:50;7.20;99.90
24410;DHT22;12543;53.364;-1.504;2022-11-20T03:17:19;7.20;99.90
24410;DHT22;12543;53.364;-1.504;2022-11-20T03:19:46;7.20;99.90
24410;DHT22;12543;53.364;-1.504;2022-11-20T03:22:13;7.20;99.90
24410;DHT22;12543;53.364;-1.504;2022-11-20T03:24:40;7.30;99.90
24410;DHT22;12543;53.364;-1.504;2022-11-20T03:27:07;7.20;99.90
24410;DHT22;12543;53.364;-1.504;2022-11-20T03:29:35;7.20;99.90
24410;DHT22;12543;53.364;-1.504;2022-11-20T03:32:02;7.20;99.90
24410;DHT22;12543;53.364;-1.504;2022-11-20T03:34:29;7.20;99.90
24410;DHT22;12543;53.364;-1.504;2022-11-20T03:36:56;7.10;99.90
24410;DHT22;12543;53.364;-1.504;2022-11-20T03:39:23;7.10;99.90
24410;DHT22;12543;53.364;-1.504;2022-11-20T03:41:50;7.10;99.90
24410;DHT22;12543;53.364;-1.504;2022-11-20T03:44:17;7.10;99.90
24410;DHT22;12543;53.364;-1.504;2022-11-20T03:46:47;7.00;99.90
24410;DHT22;12543;53.364;-1.504;2022-11-20T03:49:14;7.00;99.90
24410;DHT22;12543;53.364;-1.504;2022-11-20T03:51:41;7.00;99.90
24410;DHT22;12543;53.364;-1.504;2022-11-20T03:54:08;7.00;99.90
24410;DHT22;12543;53.364;-1.504;2022-11-20T03:56:37;7.00;99.90
24410;DHT22;12543;53.364;-1.504;2022-11-20T03:59:05;7.00;99.90
24410;DHT22;12543;53.364;-1.504;2022-11-20T04:01:35;7.00;99.90
24410;DHT22;12543;53.364;-1.504;2022-11-20T04:04:03;7.00;99.90
24410;DHT22;12543;53.364;-1.504;2022-11-20T04:06:35;7.00;99.90
24410;DHT22;12543;53.364;-1.504;2022-11-20T04:09:03;7.00;99.90
24410;DHT22;12543;53.364;-1.504;2022-11-20T04:11:32;7.00;99.90
24410;DHT22;12543;53.364;-1.504;2022-11-20T04:14:01;7.00;99.90
24410;DHT22;12543;53.364;-1.504;2022-11-20T04:16:31;7.00;99.90
24410;DHT22;12543;53.364;-1.504;2022-11-20T04:19:01;7.00;99.90
24410;DHT22;12543;53.364;-1.504;2022-11-20T04:21:28;7.00;99.90
24410;DHT22;12543;53.364;-1.504;2022-11-20T04:23:56;7.00;99.90
24410;DHT22;12543;53.364;-1.504;2022-11-20T04:26:25;7.00;99.90
24410;DHT22;12543;53.364;-1.504;2022-11-20T04:28:53;6.90;99.90
24410;DHT22;12543;53.364;-1.504;2022-11-20T04:31:26;7.00;99.90
24410;DHT22;12543;53.364;-1.504;2022-11-20T04:33:53;7.00;99.90
24410;DHT22;12543;53.364;-1.504;2022-11-20T04:36:23;7.00;99.90
24410;DHT22;12543;53.364;-1.504;2022-11-20T04:38:52;7.00;99.90
24410;DHT22;12543;53.364;-1.504;2022-11-20T04:41:24;7.00;99.90
24410;DHT22;12543;53.364;-1.504;2022-11-20T04:43:54;7.00;99.90
24410;DHT22;12543;53.364;-1.504;2022-11-20T04:46:27;7.00;99.90
24410;DHT22;12543;53.364;-1.504;2022-11-20T04:48:54;7.00;99.90
24410;DHT22;12543;53.364;-1.504;2022-11-20T04:51:21;6.90;99.90
24410;DHT22;12543;53.364;-1.504;2022-11-20T04:53:48;6.90;99.90
24410;DHT22;12543;53.364;-1.504;2022-11-20T04:56:15;7.00;99.90
24410;DHT22;12543;53.364;-1.504;2022-11-20T04:58:43;6.90;99.90
24410;DHT22;12543;53.364;-1.504;2022-11-20T05:01:28;6.90;99.90
24410;DHT22;12543;53.364;-1.504;2022-11-20T05:03:55;7.00;99.90
24410;DHT22;12543;53.364;-1.504;2022-11-20T05:06:22;6.90;99.90
24410;DHT22;12543;53.364;-1.504;2022-11-20T05:08:49;6.90;99.90
24410;DHT22;12543;53.364;-1.504;2022-11-20T05:11:19;6.90;99.90
24410;DHT22;12543;53.364;-1.504;2022-11-20T05:13:47;6.90;99.90
24410;DHT22;12543;53.364;-1.504;2022-11-20T05:16:23;6.90;99.90
24410;DHT22;12543;53.364;-1.504;2022-11-20T05:18:52;6.90;99.90
24410;DHT22;12543;53.364;-1.504;2022-11-20T05:21:19;6.90;99.90
24410;DHT22;12543;53.364;-1.504;2022-11-20T05:23:47;6.90;99.90
24410;DHT22;12543;53.364;-1.504;2022-11-20T05:26:21;6.80;99.90
24410;DHT22;12543;53.364;-1.504;2022-11-20T05:28:49;6.80;99.90
24410;DHT22;12543;53.364;-1.504;2022-11-20T05:31:21;6.80;99.90
24410;DHT22;12543;53.364;-1.504;2022-11-20T05:33:54;6.80;99.90
24410;DHT22;12543;53.364;-1.504;2022-11-20T05:36:21;6.80;99.90
24410;DHT22;12543;53.364;-1.504;2022-11-20T05:38:48;6.80;99.90
24410;DHT22;12543;53.364;-1.504;2022-11-20T05:41:17;6.80;99.90
24410;DHT22;12543;53.364;-1.504;2022-11-20T05:43:46;6.80;99.90
24410;DHT22;12543;53.364;-1.504;2022-11-20T05:46:17;6.80;99.90
24410;DHT22;12543;53.364;-1.504;2022-11-20T05:48:49;6.80;99.90
24410;DHT22;12543;53.364;-1.504;2022-11-20T05:51:18;6.80;99.90
24410;DHT22;12543;53.364;-1.504;2022-11-20T05:53:46;6.80;99.90
24410;DHT22;12543;53.364;-1.504;2022-11-20T05:56:19;6.80;99.90
24410;DHT22;12543;53.364;-1.504;2022-11-20T05:58:47;6.80;99.90
24410;DHT22;12543;53.364;-1.504;2022-11-20T06:01:18;6.80;99.90
24410;DHT22;12543;53.364;-1.504;2022-11-20T06:03:45;6.80;99.90
24410;DHT22;12543;53.364;-1.504;2022-11-20T06:06:15;6.80;99.90
24410;DHT22;12543;53.364;-1.504;2022-11-20T06:08:43;6.80;99.90
24410;DHT22;12543;53.364;-1.504;2022-11-20T06:11:12;6.80;99.90
24410;DHT22;12543;53.364;-1.504;2022-11-20T06:13:39;6.80;99.90
24410;DHT22;12543;53.364;-1.504;2022-11-20T06:16:09;6.80;99.90
24410;DHT22;12543;53.364;-1.504;2022-11-20T06:18:37;6.80;99.90
24410;DHT22;12543;53.364;-1.504;2022-11-20T06:21:06;6.80;99.90
24410;DHT22;12543;53.364;-1.504;2022-11-20T06:23:34;6.80;99.90
24410;DHT22;12543;53.364;-1.504;2022-11-20T06:26:07;6.90;99.90
24410;DHT22;12543;53.364;-1.504;2022-11-20T06:28:34;6.90;99.90
24410;DHT22;12543;53.364;-1.504;2022-11-20T06:31:02;6.80;99.90
24410;DHT22;12543;53.364;-1.504;2022-11-20T06:33:29;6.80;99.90
24410;DHT22;12543;53.364;-1.504;2022-11-20T06:35:58;6.80;99.90
24410;DHT22;12543;53.364;-1.504;2022-11-20T06:38:29;6.80;99.90
24410;DHT22;12543;53.364;-1.504;2022-11-20T06:40:56;6.80;99.90
24410;DHT22;12543;53.364;-1.504;2022-11-20T06:43:24;6.80;99.90
24410;DHT22;12543;53.364;-1.504;2022-11-20T06:45:56;6.80;99.90
24410;DHT22;12543;53.364;-1.504;2022-11-20T06:48:26;6.80;99.90
24410;DHT22;12543;53.364;-1.504;2022-11-20T06:50:53;6.90;99.90
24410;DHT22;12543;53.364;-1.504;2022-11-20T06:53:21;6.90;99.90
24410;DHT22;12543;53.364;-1.504;2022-11-20T06:55:49;6.90;99.90
24410;DHT22;12543;53.364;-1.504;2022-11-20T06:58:16;6.90;99.90
24410;DHT22;12543;53.364;-1.504;2022-11-20T07:00:43;6.90;99.90
24410;DHT22;12543;53.364;-1.504;2022-11-20T07:03:11;6.90;99.90
24410;DHT22;12543;53.364;-1.504;2022-11-20T07:05:39;6.90;99.90
24410;DHT22;12543;53.364;-1.504;2022-11-20T07:08:06;7.00;99.90
24410;DHT22;12543;53.364;-1.504;2022-11-20T07:10:34;7.00;99.90
24410;DHT22;12543;53.364;-1.504;2022-11-20T07:13:01;7.00;99.90
24410;DHT22;12543;53.364;-1.504;2022-11-20T07:15:28;7.00;99.90
24410;DHT22;12543;53.364;-1.504;2022-11-20T07:17:57;7.00;99.90
24410;DHT22;12543;53.364;-1.504;2022-11-20T07:20:25;7.00;99.90
24410;DHT22;12543;53.364;-1.504;2022-11-20T07:22:55;7.10;99.90
24410;DHT22;12543;53.364;-1.504;2022-11-20T07:25:23;7.00;99.90
24410;DHT22;12543;53.364;-1.504;2022-11-20T07:27:51;7.00;99.90
24410;DHT22;12543;53.364;-1.504;2022-11-20T07:30:18;7.00;99.90
24410;DHT22;12543;53.364;-1.504;2022-11-20T07:32:52;7.00;99.90
24410;DHT22;12543;53.364;-1.504;2022-11-20T07:35:20;7.00;99.90
24410;DHT22;12543;53.364;-1.504;2022-11-20T07:37:47;7.00;99.90
24410;DHT22;12543;53.364;-1.504;2022-11-20T07:40:16;7.00;99.90
24410;DHT22;12543;53.364;-1.504;2022-11-20T07:42:50;7.00;99.90
24410;DHT22;12543;53.364;-1.504;2022-11-20T07:45:18;7.00;99.90
24410;DHT22;12543;53.364;-1.504;2022-11-20T07:47:45;7.00;99.90
24410;DHT22;12543;53.364;-1.504;2022-11-20T07:50:12;7.00;99.90
24410;DHT22;12543;53.364;-1.504;2022-11-20T07:52:40;7.00;99.90
24410;DHT22;12543;53.364;-1.504;2022-11-20T07:55:08;7.00;99.90
24410;DHT22;12543;53.364;-1.504;2022-11-20T07:57:35;7.00;99.90
24410;DHT22;12543;53.364;-1.504;2022-11-20T08:00:03;7.00;99.90
24410;DHT22;12543;53.364;-1.504;2022-11-20T08:02:41;7.00;99.90
24410;DHT22;12543;53.364;-1.504;2022-11-20T08:05:09;7.00;99.90
24410;DHT22;12543;53.364;-1.504;2022-11-20T08:07:37;7.00;99.90
24410;DHT22;12543;53.364;-1.504;2022-11-20T08:10:06;7.00;99.90
24410;DHT22;12543;53.364;-1.504;2022-11-20T08:12:33;7.00;99.90
24410;DHT22;12543;53.364;-1.504;2022-11-20T08:15:20;7.00;99.90
24410;DHT22;12543;53.364;-1.504;2022-11-20T08:17:47;7.00;99.90
24410;DHT22;12543;53.364;-1.504;2022-11-20T08:20:34;7.00;99.90
24410;DHT22;12543;53.364;-1.504;2022-11-20T08:23:04;7.10;99.90
24410;DHT22;12543;53.364;-1.504;2022-11-20T08:25:33;7.10;99.90
24410;DHT22;12543;53.364;-1.504;2022-11-20T08:28:05;7.10;99.90
24410;DHT22;12543;53.364;-1.504;2022-11-20T08:30:45;7.10;99.90
24410;DHT22;12543;53.364;-1.504;2022-11-20T08:33:12;7.20;99.90
24410;DHT22;12543;53.364;-1.504;2022-11-20T08:35:39;7.20;99.90
24410;DHT22;12543;53.364;-1.504;2022-11-20T08:38:08;7.20;99.90
24410;DHT22;12543;53.364;-1.504;2022-11-20T08:40:36;7.20;99.90
24410;DHT22;12543;53.364;-1.504;2022-11-20T08:43:03;7.20;99.90
24410;DHT22;12543;53.364;-1.504;2022-11-20T08:45:30;7.30;99.90
24410;DHT22;12543;53.364;-1.504;2022-11-20T08:48:02;7.30;99.90
24410;DHT22;12543;53.364;-1.504;2022-11-20T08:50:29;7.30;99.90
24410;DHT22;12543;53.364;-1.504;2022-11-20T08:53:05;7.40;99.90
24410;DHT22;12543;53.364;-1.504;2022-11-20T08:55:32;7.40;99.90
24410;DHT22;12543;53.364;-1.504;2022-11-20T08:58:05;7.40;99.90
24410;DHT22;12543;53.364;-1.504;2022-11-20T09:00:33;7.40;99.90
24410;DHT22;12543;53.364;-1.504;2022-11-20T09:03:00;7.50;99.90
24410;DHT22;12543;53.364;-1.504;2022-11-20T09:05:28;7.50;99.90
24410;DHT22;12543;53.364;-1.504;2022-11-20T09:07:58;7.50;99.90
24410;DHT22;12543;53.364;-1.504;2022-11-20T09:10:26;7.50;99.90
24410;DHT22;12543;53.364;-1.504;2022-11-20T09:12:54;7.60;99.90
24410;DHT22;12543;53.364;-1.504;2022-11-20T09:15:23;7.60;99.90
24410;DHT22;12543;53.364;-1.504;2022-11-20T09:17:54;7.70;99.90
24410;DHT22;12543;53.364;-1.504;2022-11-20T09:20:22;7.70;99.90
24410;DHT22;12543;53.364;-1.504;2022-11-20T09:22:48;7.80;99.90
24410;DHT22;12543;53.364;-1.504;2022-11-20T09:25:16;7.80;99.90
24410;DHT22;12543;53.364;-1.504;2022-11-20T09:27:43;7.80;99.90
24410;DHT22;12543;53.364;-1.504;2022-11-20T09:30:15;7.90;99.90
24410;DHT22;12543;53.364;-1.504;2022-11-20T09:32:43;7.90;99.90
24410;DHT22;12543;53.364;-1.504;2022-11-20T09:35:10;7.90;99.90
24410;DHT22;12543;53.364;-1.504;2022-11-20T09:37:37;7.90;99.90
24410;DHT22;12543;53.364;-1.504;2022-11-20T09:40:05;7.90;99.90
24410;DHT22;12543;53.364;-1.504;2022-11-20T09:48:31;7.90;99.90
24410;DHT22;12543;53.364;-1.504;2022-11-20T09:54:19;8.00;99.90
24410;DHT22;12543;53.364;-1.504;2022-11-20T09:56:55;8.00;99.90
24410;DHT22;12543;53.364;-1.504;2022-11-20T10:01:54;8.10;99.90
24410;DHT22;12543;53.364;-1.504;2022-11-20T10:04:22;8.10;99.90
24410;DHT22;12543;53.364;-1.504;2022-11-20T10:07:17;8.10;99.90
24410;DHT22;12543;53.364;-1.504;2022-11-20T10:10:01;8.10;99.90
24410;DHT22;12543;53.364;-1.504;2022-11-20T10:15:31;8.20;99.90
24410;DHT22;12543;53.364;-1.504;2022-11-20T10:26:03;8.30;99.90
24410;DHT22;12543;53.364;-1.504;2022-11-20T10:31:13;8.40;99.90
24410;DHT22;12543;53.364;-1.504;2022-11-20T10:33:44;8.40;99.90
24410;DHT22;12543;53.364;-1.504;2022-11-20T10:36:49;8.40;99.90
24410;DHT22;12543;53.364;-1.504;2022-11-20T10:39:28;8.40;99.90
24410;DHT22;12543;53.364;-1.504;2022-11-20T10:41:56;8.50;99.90
24410;DHT22;12543;53.364;-1.504;2022-11-20T10:44:28;8.40;99.90
24410;DHT22;12543;53.364;-1.504;2022-11-20T10:47:21;8.40;99.90
24410;DHT22;12543;53.364;-1.504;2022-11-20T10:49:54;8.40;99.90
24410;DHT22;12543;53.364;-1.504;2022-11-20T11:00:44;8.40;99.90
24410;DHT22;12543;53.364;-1.504;2022-11-20T11:03:25;8.40;99.90
24410;DHT22;12543;53.364;-1.504;2022-11-20T11:08:58;8.40;99.90
24410;DHT22;12543;53.364;-1.504;2022-11-20T11:11:30;8.40;99.90
24410;DHT22;12543;53.364;-1.504;2022-11-20T11:14:06;8.40;99.90
24410;DHT22;12543;53.364;-1.504;2022-11-20T11:16:33;8.50;99.90
24410;DHT22;12543;53.364;-1.504;2022-11-20T11:19:14;8.50;99.90
24410;DHT22;12543;53.364;-1.504;2022-11-20T11:21:53;8.50;99.90
24410;DHT22;12543;53.364;-1.504;2022-11-20T11:24:26;8.50;99.90
24410;DHT22;12543;53.364;-1.504;2022-11-20T11:27:14;8.50;99.90
24410;DHT22;12543;53.364;-1.504;2022-11-20T11:29:45;8.50;99.90
24410;DHT22;12543;53.364;-1.504;2022-11-20T11:32:15;8.50;99.90
24410;DHT22;12543;53.364;-1.504;2022-11-20T11:34:42;8.50;99.90
24410;DHT22;12543;53.364;-1.504;2022-11-20T11:37:20;8.50;99.90
24410;DHT22;12543;53.364;-1.504;2022-11-20T11:39:51;8.50;99.90
24410;DHT22;12543;53.364;-1.504;2022-11-20T11:42:52;8.50;99.90
24410;DHT22;12543;53.364;-1.504;2022-11-20T11:45:21;8.60;99.90
24410;DHT22;12543;53.364;-1.504;2022-11-20T11:47:49;8.50;99.90
24410;DHT22;12543;53.364;-1.504;2022-11-20T11:50:21;8.60;99.90
24410;DHT22;12543;53.364;-1.504;2022-11-20T11:53:09;8.60;99.90
24410;DHT22;12543;53.364;-1.504;2022-11-20T11:55:53;8.60;99.90
24410;DHT22;12543;53.364;-1.504;2022-11-20T12:01:12;8.60;99.90
24410;DHT22;12543;53.364;-1.504;2022-11-20T12:03:50;8.60;99.90
24410;DHT22;12543;53.364;-1.504;2022-11-20T12:06:20;8.60;99.90
24410;DHT22;12543;53.364;-1.504;2022-11-20T12:11:43;8.50;99.90
24410;DHT22;12543;53.364;-1.504;2022-11-20T12:14:22;8.60;99.90
24410;DHT22;12543;53.364;-1.504;2022-11-20T12:16:54;8.50;99.90
24410;DHT22;12543;53.364;-1.504;2022-11-20T12:19:22;8.50;99.90
24410;DHT22;12543;53.364;-1.504;2022-11-20T12:21:55;8.60;99.90
24410;DHT22;12543;53.364;-1.504;2022-11-20T12:27:39;8.50;99.90
24410;DHT22;12543;53.364;-1.504;2022-11-20T12:30:19;8.60;99.90
24410;DHT22;12543;53.364;-1.504;2022-11-20T12:43:59;8.60;99.90
24410;DHT22;12543;53.364;-1.504;2022-11-20T12:58:12;8.60;99.90
24410;DHT22;12543;53.364;-1.504;2022-11-20T13:00:58;8.60;99.90
24410;DHT22;12543;53.364;-1.504;2022-11-20T13:03:42;8.60;99.90
24410;DHT22;12543;53.364;-1.504;2022-11-20T13:06:19;8.60;99.90
24410;DHT22;12543;53.364;-1.504;2022-11-20T13:08:56;8.60;99.90
24410;DHT22;12543;53.364;-1.504;2022-11-20T13:14:26;8.60;99.90
24410;DHT22;12543;53.364;-1.504;2022-11-20T13:19:32;8.60;99.90
24410;DHT22;12543;53.364;-1.504;2022-11-20T13:21:59;8.60;99.90
24410;DHT22;12543;53.364;-1.504;2022-11-20T13:24:29;8.60;99.90
24410;DHT22;12543;53.364;-1.504;2022-11-20T13:27:21;8.60;99.90
24410;DHT22;12543;53.364;-1.504;2022-11-20T13:30:12;8.60;99.90
24410;DHT22;12543;53.364;-1.504;2022-11-20T13:33:04;8.60;99.90
24410;DHT22;12543;53.364;-1.504;2022-11-20T13:38:04;8.60;99.90
24410;DHT22;12543;53.364;-1.504;2022-11-20T13:40:32;8.50;99.90
24410;DHT22;12543;53.364;-1.504;2022-11-20T13:43:21;8.60;99.90
24410;DHT22;12543;53.364;-1.504;2022-11-20T13:46:01;8.60;99.90
24410;DHT22;12543;53.364;-1.504;2022-11-20T13:48:48;8.50;99.90
24410;DHT22;12543;53.364;-1.504;2022-11-20T14:02:03;8.40;99.90
24410;DHT22;12543;53.364;-1.504;2022-11-20T14:04:38;8.40;99.90
24410;DHT22;12543;53.364;-1.504;2022-11-20T14:07:09;8.40;99.90
24410;DHT22;12543;53.364;-1.504;2022-11-20T14:09:36;8.40;99.90
24410;DHT22;12543;53.364;-1.504;2022-11-20T14:12:12;8.50;99.90
24410;DHT22;12543;53.364;-1.504;2022-11-20T14:14:48;8.40;99.90
24410;DHT22;12543;53.364;-1.504;2022-11-20T14:17:32;8.40;99.90
24410;DHT22;12543;53.364;-1.504;2022-11-20T14:20:06;8.40;99.90
24410;DHT22;12543;53.364;-1.504;2022-11-20T14:22:33;8.40;99.90
24410;DHT22;12543;53.364;-1.504;2022-11-20T14:25:22;8.40;99.90
24410;DHT22;12543;53.364;-1.504;2022-11-20T14:27:55;8.40;99.90
24410;DHT22;12543;53.364;-1.504;2022-11-20T14:30:46;8.40;99.90
24410;DHT22;12543;53.364;-1.504;2022-11-20T14:33:14;8.40;99.90
24410;DHT22;12543;53.364;-1.504;2022-11-20T14:35:47;8.40;99.90
24410;DHT22;12543;53.364;-1.504;2022-11-20T14:38:17;8.40;99.90
24410;DHT22;12543;53.364;-1.504;2022-11-20T14:40:45;8.40;99.90
24410;DHT22;12543;53.364;-1.504;2022-11-20T14:48:36;8.40;99.90
24410;DHT22;12543;53.364;-1.504;2022-11-20T14:51:04;8.40;99.90
24410;DHT22;12543;53.364;-1.504;2022-11-20T14:53:31;8.40;99.90
24410;DHT22;12543;53.364;-1.504;2022-11-20T14:56:00;8.40;99.90
24410;DHT22;12543;53.364;-1.504;2022-11-20T14:58:30;8.40;99.90
24410;DHT22;12543;53.364;-1.504;2022-11-20T15:01:06;8.40;99.90
24410;DHT22;12543;53.364;-1.504;2022-11-20T15:03:38;8.50;99.90
24410;DHT22;12543;53.364;-1.504;2022-11-20T15:06:07;8.50;99.90
24410;DHT22;12543;53.364;-1.504;2022-11-20T15:08:35;8.50;99.90
24410;DHT22;12543;53.364;-1.504;2022-11-20T15:11:02;8.50;99.90
24410;DHT22;12543;53.364;-1.504;2022-11-20T15:13:32;8.50;99.90
24410;DHT22;12543;53.364;-1.504;2022-11-20T15:16:02;8.50;99.90
24410;DHT22;12543;53.364;-1.504;2022-11-20T15:18:38;8.50;99.90
24410;DHT22;12543;53.364;-1.504;2022-11-20T15:21:24;8.50;99.90
24410;DHT22;12543;53.364;-1.504;2022-11-20T15:23:51;8.50;99.90
24410;DHT22;12543;53.364;-1.504;2022-11-20T15:26:26;8.50;99.90
24410;DHT22;12543;53.364;-1.504;2022-11-20T15:28:53;8.60;99.90
24410;DHT22;12543;53.364;-1.504;2022-11-20T15:31:22;8.50;99.90
24410;DHT22;12543;53.364;-1.504;2022-11-20T15:33:50;8.50;99.90
24410;DHT22;12543;53.364;-1.504;2022-11-20T15:36:17;8.50;99.90
24410;DHT22;12543;53.364;-1.504;2022-11-20T15:38:44;8.50;99.90
24410;DHT22;12543;53.364;-1.504;2022-11-20T15:41:11;8.50;99.90
24410;DHT22;12543;53.364;-1.504;2022-11-20T15:43:39;8.50;99.90
24410;DHT22;12543;53.364;-1.504;2022-11-20T15:46:15;8.50;99.90
24410;DHT22;12543;53.364;-1.504;2022-11-20T15:48:48;8.40;99.90
24410;DHT22;12543;53.364;-1.504;2022-11-20T15:51:36;8.40;99.90
24410;DHT22;12543;53.364;-1.504;2022-11-20T15:54:21;8.40;99.90
24410;DHT22;12543;53.364;-1.504;2022-11-20T15:56:50;8.40;99.90
24410;DHT22;12543;53.364;-1.504;2022-11-20T15:59:20;8.40;99.90
24410;DHT22;12543;53.364;-1.504;2022-11-20T16:01:47;8.40;99.90
24410;DHT22;12543;53.364;-1.504;2022-11-20T16:04:16;8.40;99.90
24410;DHT22;12543;53.364;-1.504;2022-11-20T16:06:43;8.40;99.90
24410;DHT22;12543;53.364;-1.504;2022-11-20T16:09:10;8.30;99.90
24410;DHT22;12543;53.364;-1.504;2022-11-20T16:11:37;8.30;99.90
24410;DHT22;12543;53.364;-1.504;2022-11-20T16:14:05;8.30;99.90
24410;DHT22;12543;53.364;-1.504;2022-11-20T16:16:52;8.30;99.90
24410;DHT22;12543;53.364;-1.504;2022-11-20T16:19:19;8.20;99.90
24410;DHT22;12543;53.364;-1.504;2022-11-20T16:21:46;8.20;99.90
24410;DHT22;12543;53.364;-1.504;2022-11-20T16:24:14;8.20;99.90
24410;DHT22;12543;53.364;-1.504;2022-11-20T16:26:42;8.20;99.90
24410;DHT22;12543;53.364;-1.504;2022-11-20T16:29:09;8.10;99.90
24410;DHT22;12543;53.364;-1.504;2022-11-20T16:31:37;8.10;99.90
24410;DHT22;12543;53.364;-1.504;2022-11-20T16:34:06;8.10;99.90
24410;DHT22;12543;53.364;-1.504;2022-11-20T16:36:42;8.00;99.90
24410;DHT22;12543;53.364;-1.504;2022-11-20T16:39:10;8.00;99.90
24410;DHT22;12543;53.364;-1.504;2022-11-20T16:41:38;7.90;99.90
24410;DHT22;12543;53.364;-1.504;2022-11-20T16:44:09;7.90;99.90
24410;DHT22;12543;53.364;-1.504;2022-11-20T16:46:37;7.80;99.90
24410;DHT22;12543;53.364;-1.504;2022-11-20T16:49:11;7.80;99.90
24410;DHT22;12543;53.364;-1.504;2022-11-20T16:51:39;7.70;99.90
24410;DHT22;12543;53.364;-1.504;2022-11-20T16:54:07;7.70;99.90
24410;DHT22;12543;53.364;-1.504;2022-11-20T16:56:35;7.70;99.90
24410;DHT22;12543;53.364;-1.504;2022-11-20T16:59:02;7.60;99.90
24410;DHT22;12543;53.364;-1.504;2022-11-20T17:01:30;7.60;99.90
24410;DHT22;12543;53.364;-1.504;2022-11-20T17:03:59;7.60;99.90
24410;DHT22;12543;53.364;-1.504;2022-11-20T17:06:29;7.50;99.90
24410;DHT22;12543;53.364;-1.504;2022-11-20T17:08:57;7.50;99.90
24410;DHT22;12543;53.364;-1.504;2022-11-20T17:11:26;7.40;99.90
24410;DHT22;12543;53.364;-1.504;2022-11-20T17:13:57;7.40;99.90
24410;DHT22;12543;53.364;-1.504;2022-11-20T17:16:26;7.40;99.90
24410;DHT22;12543;53.364;-1.504;2022-11-20T17:18:55;7.30;99.90
24410;DHT22;12543;53.364;-1.504;2022-11-20T17:21:28;7.30;99.90
24410;DHT22;12543;53.364;-1.504;2022-11-20T17:23:59;7.30;99.90
24410;DHT22;12543;53.364;-1.504;2022-11-20T17:26:28;7.30;99.90
24410;DHT22;12543;53.364;-1.504;2022-11-20T17:29:00;7.20;99.90